Time;durP1;ratioP1;P1;durP2;ratioP2;P2;SDS_P1;SDS_P2;PMS_P1;PMS_P2;Temp;Humidity;BMP_temperature;BMP_pressure;BME280_temperature;BME280_humidity;BME280_pressure;Samples;Min_cycle;Max_cycle;Signal;HPM_P1;HPM_P2
2021/07/19 00:00:12;;;;;;;2.10;2.00;;;24.20;69.90;;;;;;5038569;28;20098;-26
2021/07/19 00:02:38;;;;;;;2.30;2.20;;;24.20;69.90;;;;;;5057142;28;20068;-32
2021/07/19 00:05:04;;;;;;;2.25;2.15;;;24.20;69.90;;;;;;5059954;28;20055;-28
2021/07/19 00:07:30;;;;;;;2.63;2.42;;;24.20;70.70;;;;;;5066885;28;20514;-27
2021/07/19 00:09:55;;;;;;;2.30;2.20;;;24.20;70.00;;;;;;5067163;28;20568;-27
2021/07/19 00:12:21;;;;;;;2.03;1.92;;;24.20;70.00;;;;;;5067087;28;20041;-32
2021/07/19 00:14:47;;;;;;;2.42;2.33;;;24.20;70.00;;;;;;5057140;28;20040;-35
2021/07/19 00:17:13;;;;;;;2.40;2.30;;;24.20;70.00;;;;;;5056789;28;20052;-27
2021/07/19 00:19:39;;;;;;;2.60;2.40;;;24.10;70.00;;;;;;5055758;28;20025;-28
2021/07/19 00:22:05;;;;;;;2.05;1.95;;;24.10;70.10;;;;;;5052312;28;20063;-28
2021/07/19 00:24:31;;;;;;;2.40;2.25;;;24.10;70.10;;;;;;5055831;28;20545;-26
2021/07/19 00:26:56;;;;;;;2.10;2.00;;;24.10;70.10;;;;;;5065547;28;20029;-28
2021/07/19 00:29:22;;;;;;;2.17;2.08;;;24.10;70.10;;;;;;5062030;28;20490;-25
2021/07/19 00:31:48;;;;;;;2.13;2.03;;;24.10;70.10;;;;;;5055801;28;20028;-30
2021/07/19 00:34:13;;;;;;;2.63;2.00;;;24.10;70.20;;;;;;5034970;28;20504;-28
2021/07/19 00:36:39;;;;;;;2.00;1.88;;;24.10;70.10;;;;;;5059118;28;20040;-26
2021/07/19 00:39:08;;;;;;;2.10;2.00;;;24.00;70.10;;;;;;5059829;28;20055;-28
2021/07/19 00:41:34;;;;;;;2.00;1.90;;;24.00;70.30;;;;;;5067334;28;20111;-28
2021/07/19 00:44:00;;;;;;;2.00;1.90;;;24.00;70.90;;;;;;5068971;28;20063;-31
2021/07/19 00:46:25;;;;;;;2.10;2.00;;;24.00;70.10;;;;;;5060747;28;20051;-26
2021/07/19 00:48:51;;;;;;;2.25;2.15;;;24.10;70.10;;;;;;5071212;28;20467;-32
2021/07/19 00:51:17;;;;;;;1.85;1.75;;;24.00;70.20;;;;;;5042507;28;20090;-27
2021/07/19 00:53:42;;;;;;;1.98;1.88;;;24.00;70.10;;;;;;5042386;28;20035;-25
2021/07/19 00:56:08;;;;;;;2.20;2.10;;;24.00;70.10;;;;;;5061028;28;20020;-28
2021/07/19 00:58:34;;;;;;;2.03;1.92;;;24.00;70.10;;;;;;5042538;28;20030;-29
2021/07/19 01:01:00;;;;;;;2.13;2.03;;;24.00;70.20;;;;;;5025377;28;20044;-27
2021/07/19 01:03:25;;;;;;;1.90;1.80;;;24.00;70.10;;;;;;5052689;28;20031;-30
2021/07/19 01:05:51;;;;;;;1.75;1.65;;;24.00;70.20;;;;;;5054118;28;20403;-29
2021/07/19 01:08:20;;;;;;;1.67;1.58;;;24.00;70.30;;;;;;5073273;28;20029;-31
2021/07/19 01:10:46;;;;;;;2.00;1.90;;;24.00;70.10;;;;;;5056529;28;20120;-29
2021/07/19 01:13:12;;;;;;;2.15;2.05;;;24.00;70.20;;;;;;5053640;28;20104;-29
2021/07/19 01:15:38;;;;;;;1.85;1.77;;;24.00;70.20;;;;;;5040746;28;20033;-28
2021/07/19 01:18:04;;;;;;;1.90;1.80;;;24.00;70.20;;;;;;5068152;28;20031;-35
2021/07/19 01:20:54;;;;;;;1.92;1.83;;;24.00;70.20;;;;;;5054352;28;20531;-26
2021/07/19 01:23:32;;;;;;;2.03;1.90;;;23.90;70.10;;;;;;5065964;28;20123;-30
2021/07/19 01:26:18;;;;;;;2.10;2.00;;;24.00;70.10;;;;;;5064790;28;20147;-28
2021/07/19 01:28:44;;;;;;;2.30;2.20;;;24.00;70.10;;;;;;5051333;28;20028;-27
2021/07/19 01:31:17;;;;;;;1.90;1.80;;;23.90;70.10;;;;;;5071102;28;20027;-29
2021/07/19 01:33:44;;;;;;;2.65;2.10;;;23.90;70.10;;;;;;5070237;28;20439;-28
2021/07/19 01:36:11;;;;;;;2.15;2.05;;;23.90;70.20;;;;;;5047039;28;20039;-29
2021/07/19 01:38:37;;;;;;;1.90;1.80;;;23.90;70.30;;;;;;5063451;28;20115;-32
2021/07/19 01:41:03;;;;;;;2.28;2.10;;;23.90;70.30;;;;;;5037545;28;20120;-29
2021/07/19 01:43:28;;;;;;;1.85;1.75;;;23.90;70.20;;;;;;5039868;28;20041;-29
2021/07/19 01:45:54;;;;;;;1.85;1.75;;;23.90;70.20;;;;;;5021410;28;20082;-28
2021/07/19 01:48:19;;;;;;;2.15;1.95;;;23.90;70.40;;;;;;5035187;28;20036;-29
2021/07/19 01:50:45;;;;;;;2.40;2.00;;;23.90;70.30;;;;;;5027043;28;20104;-32
2021/07/19 01:53:10;;;;;;;2.22;2.13;;;23.80;70.10;;;;;;5042448;28;20020;-30
2021/07/19 01:55:36;;;;;;;2.28;1.90;;;23.90;70.30;;;;;;5040449;28;20481;-28
2021/07/19 01:58:02;;;;;;;2.00;1.90;;;23.80;70.20;;;;;;5037706;28;20060;-29
2021/07/19 02:00:28;;;;;;;1.80;1.70;;;23.90;70.10;;;;;;5023545;28;20025;-28
2021/07/19 02:02:54;;;;;;;1.85;1.75;;;23.90;70.20;;;;;;5041014;28;20558;-33
2021/07/19 02:05:21;;;;;;;2.25;1.92;;;23.90;70.20;;;;;;5058917;28;20166;-27
2021/07/19 02:07:50;;;;;;;2.00;1.90;;;23.90;70.20;;;;;;5040937;28;20031;-33
2021/07/19 02:10:16;;;;;;;2.30;2.20;;;23.90;70.20;;;;;;5023278;28;20413;-28
2021/07/19 02:12:42;;;;;;;2.20;2.10;;;23.80;70.00;;;;;;5035275;28;20035;-29
2021/07/19 02:15:13;;;;;;;2.50;2.30;;;23.80;70.10;;;;;;5049773;28;20085;-28
2021/07/19 02:17:38;;;;;;;1.80;1.70;;;23.80;70.10;;;;;;5035170;28;20028;-29
2021/07/19 02:20:08;;;;;;;2.25;2.15;;;23.90;70.10;;;;;;5048474;28;20047;-26
2021/07/19 02:22:33;;;;;;;2.20;2.10;;;23.80;70.10;;;;;;5067970;28;20033;-32
2021/07/19 02:24:59;;;;;;;2.13;2.03;;;23.80;70.10;;;;;;5070249;28;20057;-30
2021/07/19 02:27:24;;;;;;;2.10;1.90;;;23.80;70.10;;;;;;5039818;28;20453;-26
2021/07/19 02:29:50;;;;;;;1.85;1.75;;;23.80;70.20;;;;;;5039982;28;20024;-26
2021/07/19 02:32:16;;;;;;;2.22;1.77;;;23.80;70.10;;;;;;5042412;28;20029;-29
2021/07/19 02:34:41;;;;;;;1.55;1.52;;;23.80;70.10;;;;;;5035227;28;20032;-31
2021/07/19 02:37:07;;;;;;;1.80;1.70;;;23.70;70.10;;;;;;5046889;28;20032;-27
2021/07/19 02:39:32;;;;;;;2.00;1.90;;;23.80;70.10;;;;;;5050202;28;20016;-28
2021/07/19 02:41:58;;;;;;;1.98;1.88;;;23.80;70.10;;;;;;5048467;28;20038;-29
2021/07/19 02:44:24;;;;;;;2.00;1.90;;;23.80;70.10;;;;;;5048732;28;20023;-30
2021/07/19 02:46:50;;;;;;;2.50;2.30;;;23.80;70.10;;;;;;5031671;28;20099;-33
2021/07/19 02:49:16;;;;;;;2.40;2.30;;;23.80;70.00;;;;;;5034397;28;20032;-35
2021/07/19 02:51:42;;;;;;;2.00;1.90;;;23.80;70.00;;;;;;5038338;28;20037;-30
2021/07/19 02:54:07;;;;;;;2.20;1.88;;;23.80;70.00;;;;;;5048360;28;20020;-27
2021/07/19 02:56:37;;;;;;;2.28;2.17;;;23.70;70.00;;;;;;5062349;28;20029;-27
2021/07/19 02:59:03;;;;;;;1.85;1.75;;;23.80;70.10;;;;;;5038641;28;20024;-28
2021/07/19 03:01:28;;;;;;;2.40;2.20;;;23.70;70.80;;;;;;5036851;28;20682;-33
2021/07/19 03:03:55;;;;;;;2.08;1.98;;;23.70;70.30;;;;;;5048569;28;20116;-31
2021/07/19 03:06:23;;;;;;;1.90;1.80;;;23.70;70.20;;;;;;5052743;28;20036;-29
2021/07/19 03:08:49;;;;;;;1.92;1.77;;;23.70;70.10;;;;;;5048255;28;20024;-33
2021/07/19 03:11:34;;;;;;;1.98;1.88;;;23.70;70.30;;;;;;5030957;28;20549;-28
2021/07/19 03:14:00;;;;;;;2.20;2.10;;;23.70;70.10;;;;;;5050147;28;20497;-30
2021/07/19 03:16:27;;;;;;;1.77;1.70;;;23.70;70.00;;;;;;5037393;28;20104;-31
2021/07/19 03:18:53;;;;;;;2.13;2.03;;;23.70;70.10;;;;;;5054832;28;20079;-32
2021/07/19 03:21:19;;;;;;;1.85;1.75;;;23.70;70.00;;;;;;5056174;28;20071;-32
2021/07/19 03:23:45;;;;;;;2.05;1.85;;;23.70;70.10;;;;;;5037986;28;20024;-26
2021/07/19 03:26:10;;;;;;;2.20;2.10;;;23.70;70.00;;;;;;5057425;28;20036;-30
2021/07/19 03:28:36;;;;;;;2.05;1.95;;;23.70;70.10;;;;;;5038738;28;20029;-29
2021/07/19 03:31:02;;;;;;;2.08;1.98;;;23.70;70.10;;;;;;5035337;28;20017;-27
2021/07/19 03:33:27;;;;;;;2.30;2.10;;;23.60;70.10;;;;;;5038921;28;20107;-30
2021/07/19 03:35:54;;;;;;;2.10;2.00;;;23.70;70.00;;;;;;5039500;28;20504;-27
2021/07/19 03:38:19;;;;;;;2.03;1.92;;;23.70;69.90;;;;;;5043939;28;20074;-28
2021/07/19 03:40:45;;;;;;;2.53;2.33;;;23.70;70.00;;;;;;5050064;28;20029;-26
2021/07/19 03:43:10;;;;;;;2.10;2.00;;;23.70;70.00;;;;;;5036491;28;20033;-27
2021/07/19 03:45:36;;;;;;;2.30;2.20;;;23.70;70.10;;;;;;5020726;28;20033;-32
2021/07/19 03:48:02;;;;;;;2.35;2.00;;;23.70;70.10;;;;;;5046767;28;20033;-30
2021/07/19 03:50:28;;;;;;;2.20;2.10;;;23.70;70.00;;;;;;5044003;28;20367;-28
2021/07/19 03:52:54;;;;;;;2.28;2.17;;;23.70;69.90;;;;;;5038919;28;20037;-27
2021/07/19 03:55:19;;;;;;;2.50;2.40;;;23.60;69.90;;;;;;5036031;28;20087;-30
2021/07/19 03:57:45;;;;;;;2.00;1.90;;;23.70;70.00;;;;;;5037286;28;20029;-31
2021/07/19 04:00:13;;;;;;;1.90;1.80;;;23.70;70.10;;;;;;5038934;28;20027;-31
2021/07/19 04:02:39;;;;;;;2.10;1.67;;;23.60;70.00;;;;;;5063232;28;20067;-34
2021/07/19 04:05:07;;;;;;;2.00;1.90;;;23.60;69.90;;;;;;5030933;28;20095;-30
2021/07/19 04:07:36;;;;;;;2.10;2.00;;;23.60;69.80;;;;;;5049115;28;20085;-27
2021/07/19 04:10:06;;;;;;;2.08;1.98;;;23.60;69.90;;;;;;5033050;28;20437;-31
2021/07/19 04:12:31;;;;;;;1.95;1.85;;;23.60;69.80;;;;;;5050241;28;20025;-29
2021/07/19 04:14:57;;;;;;;2.00;1.90;;;23.60;69.80;;;;;;5039656;28;20372;-29
2021/07/19 04:17:22;;;;;;;1.95;1.85;;;23.60;69.80;;;;;;5040095;28;20025;-34
2021/07/19 04:19:48;;;;;;;3.00;1.95;;;23.60;69.80;;;;;;5038203;28;20389;-29
2021/07/19 04:22:14;;;;;;;1.77;1.67;;;23.60;69.80;;;;;;5036188;28;20060;-31
2021/07/19 04:24:40;;;;;;;2.22;2.10;;;23.60;69.80;;;;;;5067510;28;20031;-33
2021/07/19 04:27:06;;;;;;;1.65;1.60;;;23.60;69.80;;;;;;5056785;28;20029;-30
2021/07/19 04:29:31;;;;;;;2.42;2.33;;;23.60;69.80;;;;;;5038071;28;20021;-28
2021/07/19 04:31:58;;;;;;;1.98;1.88;;;23.60;69.90;;;;;;5039828;28;20029;-31
2021/07/19 04:34:33;;;;;;;2.35;2.25;;;23.60;69.80;;;;;;5053872;28;20017;-27
2021/07/19 04:37:03;;;;;;;2.05;1.95;;;23.60;69.80;;;;;;5067496;28;20055;-28
2021/07/19 04:39:28;;;;;;;2.15;2.05;;;23.60;69.80;;;;;;5059868;28;20017;-26
2021/07/19 04:41:54;;;;;;;1.85;1.75;;;23.60;69.90;;;;;;5056575;28;20402;-26
2021/07/19 04:44:20;;;;;;;2.03;1.92;;;23.60;69.90;;;;;;5056265;28;20083;-27
2021/07/19 04:46:45;;;;;;;2.10;2.00;;;23.60;69.80;;;;;;5056463;28;20044;-32
2021/07/19 04:49:11;;;;;;;2.10;2.00;;;23.60;69.80;;;;;;5051787;28;20021;-30
2021/07/19 04:51:37;;;;;;;2.10;2.00;;;23.60;69.90;;;;;;5027015;28;20116;-30
2021/07/19 04:54:03;;;;;;;2.10;2.00;;;23.60;69.80;;;;;;5065122;28;20056;-27
2021/07/19 04:56:29;;;;;;;2.40;2.20;;;23.50;69.70;;;;;;5030315;28;20028;-34
2021/07/19 04:58:55;;;;;;;1.85;1.70;;;23.60;70.60;;;;;;5046244;28;20017;-26
2021/07/19 05:01:20;;;;;;;2.33;2.20;;;23.60;69.70;;;;;;5049256;28;20028;-33
2021/07/19 05:03:46;;;;;;;2.30;2.20;;;23.60;69.80;;;;;;5069652;28;20090;-28
2021/07/19 05:06:12;;;;;;;2.00;1.90;;;23.50;70.60;;;;;;5030817;28;20031;-33
2021/07/19 05:08:37;;;;;;;2.30;2.20;;;23.50;69.90;;;;;;5025939;28;20025;-30
2021/07/19 05:11:03;;;;;;;2.20;2.10;;;23.50;69.90;;;;;;5038388;28;20060;-33
2021/07/19 05:13:29;;;;;;;2.25;2.15;;;23.50;69.80;;;;;;5048500;28;20025;-27
2021/07/19 05:15:54;;;;;;;2.00;1.90;;;23.50;69.80;;;;;;5067351;28;20028;-35
2021/07/19 05:18:20;;;;;;;2.33;2.22;;;23.50;69.80;;;;;;5030364;28;20024;-28
2021/07/19 05:20:47;;;;;;;2.30;2.10;;;23.50;69.80;;;;;;5040493;28;20017;-26
2021/07/19 05:23:13;;;;;;;2.47;2.38;;;23.50;69.90;;;;;;5042929;28;20036;-34
2021/07/19 05:25:38;;;;;;;2.30;2.20;;;23.50;69.90;;;;;;5058520;28;20027;-30
2021/07/19 05:28:08;;;;;;;2.30;2.20;;;23.50;69.80;;;;;;5051955;28;20032;-31
2021/07/19 05:30:39;;;;;;;2.05;1.95;;;23.50;69.80;;;;;;5068250;28;20103;-31
2021/07/19 05:33:05;;;;;;;2.35;2.25;;;23.50;69.80;;;;;;5055756;28;20043;-35
2021/07/19 05:35:30;;;;;;;2.50;2.30;;;23.50;70.00;;;;;;5041670;28;20017;-30
2021/07/19 05:37:56;;;;;;;2.50;2.40;;;23.50;69.90;;;;;;5058878;28;20032;-28
2021/07/19 05:40:21;;;;;;;2.35;2.25;;;23.50;70.00;;;;;;5055419;28;20024;-30
2021/07/19 05:42:47;;;;;;;2.38;2.28;;;23.50;69.90;;;;;;5067906;28;20547;-27
2021/07/19 05:45:13;;;;;;;2.67;2.13;;;23.50;70.00;;;;;;5067708;28;20142;-32
2021/07/19 05:47:39;;;;;;;2.88;2.67;;;23.50;70.00;;;;;;5062930;28;20044;-33
2021/07/19 05:50:05;;;;;;;2.30;2.20;;;23.50;70.00;;;;;;5058133;28;20025;-27
2021/07/19 05:52:31;;;;;;;2.55;2.45;;;23.50;69.90;;;;;;5045133;28;20119;-31
2021/07/19 05:54:57;;;;;;;2.10;2.00;;;23.50;69.90;;;;;;5055069;28;20101;-31
2021/07/19 05:57:26;;;;;;;1.98;1.88;;;23.50;69.80;;;;;;5066179;28;20060;-26
2021/07/19 05:59:56;;;;;;;2.00;1.90;;;23.50;69.80;;;;;;5068141;28;20025;-27
2021/07/19 06:02:25;;;;;;;2.38;2.28;;;23.50;69.80;;;;;;5053532;28;20045;-36
2021/07/19 06:04:50;;;;;;;2.00;1.90;;;23.50;69.80;;;;;;5068287;28;20047;-32
2021/07/19 06:07:16;;;;;;;2.35;2.25;;;23.50;69.90;;;;;;5068963;28;20040;-36
2021/07/19 06:09:42;;;;;;;2.50;2.40;;;23.50;69.90;;;;;;5064829;28;20064;-33
2021/07/19 06:12:07;;;;;;;2.00;1.90;;;23.50;69.80;;;;;;5062589;28;20033;-32
2021/07/19 06:14:34;;;;;;;2.35;2.17;;;23.50;69.80;;;;;;5041275;28;20476;-32
2021/07/19 06:17:00;;;;;;;2.15;2.03;;;23.50;69.80;;;;;;5066957;28;20033;-33
2021/07/19 06:19:25;;;;;;;2.17;2.08;;;23.50;69.70;;;;;;5055891;28;20016;-28
2021/07/19 06:21:51;;;;;;;2.15;2.05;;;23.60;69.80;;;;;;5055728;28;20045;-35
2021/07/19 06:24:16;;;;;;;2.30;2.20;;;23.60;69.70;;;;;;5059415;28;20028;-30
2021/07/19 06:26:42;;;;;;;2.10;2.00;;;23.50;69.70;;;;;;5060550;28;20033;-32
2021/07/19 06:29:08;;;;;;;2.08;1.98;;;23.50;69.80;;;;;;5058063;28;20021;-33
2021/07/19 06:31:33;;;;;;;2.33;2.22;;;23.60;69.80;;;;;;5060517;28;20024;-32
2021/07/19 06:33:59;;;;;;;2.22;2.13;;;23.60;69.70;;;;;;5053530;28;20025;-31
2021/07/19 06:36:25;;;;;;;2.30;2.20;;;23.60;69.80;;;;;;5057791;28;20116;-29
2021/07/19 06:38:51;;;;;;;2.30;2.10;;;23.60;69.70;;;;;;5057594;28;20497;-28
2021/07/19 06:41:16;;;;;;;2.05;1.95;;;23.60;69.60;;;;;;5057475;28;20025;-29
2021/07/19 06:43:42;;;;;;;2.10;2.00;;;23.60;69.60;;;;;;5060103;28;20020;-31
2021/07/19 06:46:07;;;;;;;1.80;1.70;;;23.60;70.30;;;;;;5057671;28;20485;-35
2021/07/19 06:48:34;;;;;;;2.40;2.30;;;23.60;69.50;;;;;;5060868;28;20029;-29
2021/07/19 06:51:00;;;;;;;1.90;1.80;;;23.60;69.70;;;;;;5040119;28;20572;-34
2021/07/19 06:53:27;;;;;;;2.08;1.98;;;23.60;69.60;;;;;;5057023;28;20056;-27
2021/07/19 06:55:52;;;;;;;2.20;2.10;;;23.60;69.50;;;;;;5057673;28;20028;-28
2021/07/19 06:58:18;;;;;;;2.13;2.03;;;23.60;69.60;;;;;;5058428;28;20025;-33
2021/07/19 07:00:43;;;;;;;2.20;2.10;;;23.60;69.70;;;;;;5053997;28;20029;-33
2021/07/19 07:03:09;;;;;;;2.00;1.90;;;23.60;69.50;;;;;;5058648;28;20109;-31
2021/07/19 07:05:35;;;;;;;1.98;1.88;;;23.60;69.50;;;;;;5058424;28;20025;-30
2021/07/19 07:08:00;;;;;;;2.10;2.00;;;23.60;69.50;;;;;;5067014;28;20570;-28
2021/07/19 07:10:26;;;;;;;2.30;2.00;;;23.70;69.50;;;;;;5041180;28;20429;-29
2021/07/19 07:12:52;;;;;;;2.08;1.98;;;23.70;69.50;;;;;;5068502;28;20032;-33
2021/07/19 07:15:17;;;;;;;2.03;1.92;;;23.70;69.50;;;;;;5059888;28;20029;-29
2021/07/19 07:17:43;;;;;;;2.10;2.00;;;23.70;69.50;;;;;;5058294;28;20502;-34
2021/07/19 07:20:10;;;;;;;1.98;1.88;;;23.70;69.60;;;;;;5056140;28;20104;-31
2021/07/19 07:22:35;;;;;;;1.88;1.77;;;23.70;69.60;;;;;;5058132;28;20448;-34
2021/07/19 07:25:01;;;;;;;2.10;2.00;;;23.70;69.60;;;;;;5054134;28;20043;-31
2021/07/19 07:27:26;;;;;;;1.73;1.63;;;23.70;70.40;;;;;;5067890;28;20035;-29
2021/07/19 07:29:52;;;;;;;1.90;1.80;;;23.70;69.70;;;;;;5065105;28;20497;-29
2021/07/19 07:32:18;;;;;;;1.95;1.85;;;23.80;69.70;;;;;;5065588;28;20078;-29
2021/07/19 07:34:44;;;;;;;2.20;2.00;;;23.70;69.60;;;;;;5065894;28;20114;-30
2021/07/19 07:37:12;;;;;;;2.15;2.05;;;23.70;70.70;;;;;;5035421;28;20508;-30
2021/07/19 07:39:40;;;;;;;2.50;2.30;;;23.60;70.30;;;;;;5066838;28;20031;-30
2021/07/19 07:42:06;;;;;;;2.42;2.25;;;23.60;70.50;;;;;;5056742;28;20406;-29
2021/07/19 07:44:32;;;;;;;3.10;2.10;;;23.60;71.10;;;;;;5055992;28;20021;-33
2021/07/19 07:46:57;;;;;;;2.42;2.33;;;23.60;72.10;;;;;;5056333;28;20037;-29
2021/07/19 07:49:23;;;;;;;2.25;2.15;;;23.60;71.30;;;;;;5065089;28;20036;-29
2021/07/19 07:51:48;;;;;;;2.67;2.47;;;23.60;71.30;;;;;;5054097;28;20031;-29
2021/07/19 07:54:16;;;;;;;2.42;2.33;;;23.60;71.50;;;;;;5060329;28;20513;-30
2021/07/19 07:56:42;;;;;;;2.50;2.40;;;23.70;71.30;;;;;;5061586;28;20484;-33
2021/07/19 07:59:07;;;;;;;3.85;2.30;;;23.70;71.30;;;;;;5064855;28;20016;-34
2021/07/19 08:01:33;;;;;;;3.17;2.47;;;23.70;71.50;;;;;;5064341;28;20109;-30
2021/07/19 08:03:58;;;;;;;2.38;2.15;;;23.70;71.30;;;;;;5054154;28;20024;-34
2021/07/19 08:06:24;;;;;;;2.80;2.58;;;23.90;71.00;;;;;;5056497;28;20040;-29
2021/07/19 08:08:50;;;;;;;2.28;2.17;;;23.90;71.90;;;;;;5055985;28;20039;-32
2021/07/19 08:11:15;;;;;;;17.55;2.30;;;23.90;72.30;;;;;;5064273;28;20041;-33
2021/07/19 08:13:41;;;;;;;4.70;2.50;;;23.90;73.00;;;;;;5065623;28;20021;-30
2021/07/19 08:16:07;;;;;;;3.08;2.30;;;23.90;72.90;;;;;;5064941;28;20029;-27
2021/07/19 08:18:32;;;;;;;2.55;2.40;;;23.90;72.70;;;;;;5064962;28;20516;-30
2021/07/19 08:20:58;;;;;;;3.10;2.80;;;24.00;72.90;;;;;;5055678;28;20538;-27
2021/07/19 08:23:23;;;;;;;2.97;2.72;;;24.00;72.60;;;;;;5032073;28;20041;-26
2021/07/19 08:25:49;;;;;;;2.75;2.65;;;24.00;72.90;;;;;;5054333;28;20090;-30
2021/07/19 08:28:15;;;;;;;2.55;2.35;;;24.00;72.60;;;;;;5068582;28;20063;-28
2021/07/19 08:30:41;;;;;;;4.00;2.65;;;24.00;72.80;;;;;;5065516;28;20074;-29
2021/07/19 08:33:06;;;;;;;5.32;2.45;;;24.00;73.00;;;;;;5063458;28;20024;-29
2021/07/19 08:35:32;;;;;;;2.63;2.42;;;24.10;72.80;;;;;;5049043;28;20066;-30
2021/07/19 08:37:58;;;;;;;2.50;2.30;;;24.20;73.10;;;;;;5061798;28;20090;-31
2021/07/19 08:40:24;;;;;;;2.95;2.75;;;24.10;72.50;;;;;;5053667;28;20032;-31
2021/07/19 08:42:50;;;;;;;2.70;2.50;;;24.20;72.40;;;;;;5053990;28;20037;-30
2021/07/19 08:45:15;;;;;;;2.00;1.90;;;24.20;72.60;;;;;;5056578;28;20024;-30
2021/07/19 08:47:43;;;;;;;2.50;2.08;;;24.20;72.40;;;;;;5056646;28;20033;-28
2021/07/19 08:50:10;;;;;;;2.28;2.17;;;24.20;72.50;;;;;;5058048;28;20017;-30
2021/07/19 08:52:36;;;;;;;2.50;2.40;;;24.20;72.20;;;;;;5060691;28;20153;-29
2021/07/19 08:55:03;;;;;;;2.40;2.30;;;24.30;72.40;;;;;;5060076;28;20163;-32
2021/07/19 08:57:29;;;;;;;2.78;2.67;;;24.20;72.30;;;;;;5066696;28;20547;-31
2021/07/19 08:59:55;;;;;;;2.85;2.45;;;24.20;72.40;;;;;;5061215;28;20021;-31
2021/07/19 09:02:20;;;;;;;2.78;2.58;;;24.20;72.00;;;;;;5043513;28;20039;-31
2021/07/19 09:04:46;;;;;;;3.00;2.80;;;24.30;71.70;;;;;;5059231;28;20103;-28
2021/07/19 09:07:12;;;;;;;3.42;2.50;;;24.30;71.70;;;;;;5055999;28;20039;-34
2021/07/19 09:09:38;;;;;;;2.55;2.45;;;24.40;71.20;;;;;;5062263;28;20035;-27
2021/07/19 09:12:04;;;;;;;2.63;2.53;;;24.40;71.40;;;;;;5056246;28;20033;-35
2021/07/19 09:14:30;;;;;;;2.60;2.50;;;24.40;71.80;;;;;;5055664;28;20056;-32
2021/07/19 09:16:56;;;;;;;2.70;2.60;;;24.40;71.50;;;;;;5070990;28;20039;-29
2021/07/19 09:19:23;;;;;;;2.80;2.60;;;24.40;71.20;;;;;;5067835;28;20020;-25
2021/07/19 09:21:55;;;;;;;2.70;2.50;;;24.40;71.10;;;;;;5083336;28;20583;-28
2021/07/19 09:24:24;;;;;;;2.85;2.75;;;24.50;71.10;;;;;;5059068;28;20052;-29
2021/07/19 09:26:51;;;;;;;2.67;2.58;;;24.40;71.40;;;;;;5062904;28;20047;-28
2021/07/19 09:29:19;;;;;;;3.08;2.90;;;24.40;71.10;;;;;;5069004;28;20029;-30
2021/07/19 09:31:52;;;;;;;2.47;2.38;;;24.50;71.30;;;;;;5063120;28;20395;-28
2021/07/19 09:34:22;;;;;;;2.30;2.20;;;24.50;71.40;;;;;;5054734;28;20079;-27
2021/07/19 09:37:03;;;;;;;2.90;2.78;;;24.50;71.30;;;;;;5058273;28;20025;-29
2021/07/19 09:39:37;;;;;;;2.50;2.30;;;24.50;71.20;;;;;;5068368;28;20100;-32
2021/07/19 09:42:24;;;;;;;2.88;2.42;;;24.60;71.30;;;;;;5062321;28;20055;-31
2021/07/19 09:44:58;;;;;;;2.92;2.72;;;24.60;71.10;;;;;;5063632;28;20025;-32
2021/07/19 09:47:40;;;;;;;2.47;2.38;;;24.60;71.10;;;;;;5065589;28;20033;-30
2021/07/19 09:50:13;;;;;;;2.40;2.20;;;24.60;71.20;;;;;;5064308;28;20417;-35
2021/07/19 09:52:39;;;;;;;2.30;2.20;;;24.60;71.20;;;;;;5069998;28;20036;-31
2021/07/19 09:55:05;;;;;;;2.47;2.38;;;24.60;71.50;;;;;;5066743;28;20412;-28
2021/07/19 09:57:31;;;;;;;2.35;2.25;;;24.60;71.30;;;;;;5071657;28;20095;-30
2021/07/19 09:59:58;;;;;;;2.00;1.90;;;24.70;71.20;;;;;;5068588;28;20027;-34
2021/07/19 10:02:33;;;;;;;2.38;1.98;;;24.70;71.60;;;;;;5068182;28;20039;-35
2021/07/19 10:04:58;;;;;;;3.92;2.30;;;24.70;70.80;;;;;;5072393;28;20028;-33
2021/07/19 10:07:24;;;;;;;2.53;2.33;;;24.60;71.00;;;;;;4717186;28;10000253;-31
2021/07/19 10:10:05;;;;;;;2.25;2.15;;;24.70;71.00;;;;;;5079252;28;20012;-30
2021/07/19 10:12:31;;;;;;;2.53;2.42;;;24.60;71.00;;;;;;5052525;28;20047;-32
2021/07/19 10:14:57;;;;;;;2.50;2.40;;;24.70;70.90;;;;;;5065979;28;20032;-36
2021/07/19 10:17:23;;;;;;;2.40;2.20;;;24.60;71.70;;;;;;5047409;28;20090;-33
2021/07/19 10:19:48;;;;;;;2.40;2.30;;;24.70;70.60;;;;;;5066227;28;20036;-28
2021/07/19 10:22:14;;;;;;;2.60;2.40;;;24.70;70.60;;;;;;5065532;28;20044;-34
2021/07/19 10:24:41;;;;;;;3.10;2.45;;;24.70;70.30;;;;;;5067415;28;20029;-32
2021/07/19 10:27:11;;;;;;;2.28;2.17;;;24.70;70.20;;;;;;5068217;28;20036;-33
2021/07/19 10:29:37;;;;;;;2.30;2.20;;;24.70;70.00;;;;;;5065294;28;20558;-35
2021/07/19 10:32:03;;;;;;;2.95;2.38;;;24.70;69.80;;;;;;5046671;28;20060;-36
2021/07/19 10:34:28;;;;;;;2.40;2.30;;;24.70;69.60;;;;;;5049000;28;20059;-27
2021/07/19 10:36:55;;;;;;;2.40;2.30;;;24.70;69.70;;;;;;5050148;28;20642;-33
2021/07/19 10:39:32;;;;;;;2.67;2.58;;;24.70;69.60;;;;;;5030394;28;20109;-27
2021/07/19 10:42:02;;;;;;;2.63;2.40;;;24.80;69.80;;;;;;5062246;28;20075;-27
2021/07/19 10:44:33;;;;;;;4.25;2.35;;;24.80;69.40;;;;;;5058804;28;20111;-28
2021/07/19 10:47:16;;;;;;;2.35;2.15;;;24.80;69.00;;;;;;5055846;28;20064;-30
2021/07/19 10:49:56;;;;;;;2.30;2.20;;;24.80;69.20;;;;;;5040886;28;20119;-28
2021/07/19 10:52:48;;;;;;;2.40;2.20;;;24.80;69.30;;;;;;5056502;28;20736;-28
2021/07/19 10:55:31;;;;;;;2.30;2.20;;;24.80;70.10;;;;;;5031891;28;20033;-32
2021/07/19 10:58:08;;;;;;;2.75;2.55;;;24.80;69.40;;;;;;5059728;28;20028;-29
2021/07/19 11:00:38;;;;;;;2.40;2.20;;;24.80;69.20;;;;;;5041543;28;20033;-28
2021/07/19 11:03:05;;;;;;;2.50;2.30;;;24.90;68.80;;;;;;5063567;28;20036;-29
2021/07/19 11:05:39;;;;;;;2.47;2.33;;;24.90;68.90;;;;;;5056948;28;20028;-33
2021/07/19 11:08:05;;;;;;;3.05;2.45;;;24.90;69.00;;;;;;5053658;28;20035;-26
2021/07/19 11:10:31;;;;;;;2.72;2.42;;;24.80;68.70;;;;;;5065032;28;20074;-27
2021/07/19 11:12:57;;;;;;;2.80;2.60;;;24.80;68.70;;;;;;5016188;28;20029;-28
2021/07/19 11:15:34;;;;;;;2.63;2.42;;;24.80;68.60;;;;;;5061751;28;20074;-32
2021/07/19 11:18:15;;;;;;;2.20;2.10;;;24.90;68.50;;;;;;5061865;28;20028;-34
2021/07/19 11:20:41;;;;;;;2.80;2.60;;;24.90;68.70;;;;;;5058821;28;20115;-26
2021/07/19 11:23:07;;;;;;;2.58;2.47;;;24.90;68.30;;;;;;5057053;28;20032;-29
2021/07/19 11:25:43;;;;;;;2.70;2.50;;;24.90;67.90;;;;;;5037271;28;20424;-31
2021/07/19 11:28:22;;;;;;;2.60;2.40;;;24.90;67.50;;;;;;5052666;28;20025;-33
2021/07/19 11:31:02;;;;;;;2.88;2.67;;;24.90;68.00;;;;;;5060075;28;20111;-27
2021/07/19 11:33:52;;;;;;;2.40;2.20;;;24.90;67.80;;;;;;5058148;28;20025;-30
2021/07/19 11:36:23;;;;;;;2.92;2.55;;;24.90;68.40;;;;;;5047877;28;20044;-34
2021/07/19 11:38:49;;;;;;;3.60;3.30;;;24.90;67.50;;;;;;5039381;28;20103;-28
2021/07/19 11:41:23;;;;;;;3.17;2.97;;;25.00;67.80;;;;;;5036407;28;20035;-27
2021/07/19 11:43:50;;;;;;;4.32;3.03;;;25.00;67.80;;;;;;5063328;28;20036;-30
2021/07/19 11:46:42;;;;;;;3.58;3.15;;;25.00;67.80;;;;;;5049553;28;20036;-30
2021/07/19 11:49:13;;;;;;;3.42;3.13;;;24.90;68.50;;;;;;5056806;28;20132;-34
2021/07/19 11:51:45;;;;;;;3.22;3.05;;;24.90;68.50;;;;;;5067345;28;20043;-27
2021/07/19 11:54:12;;;;;;;6.75;3.65;;;24.90;68.70;;;;;;5053672;28;20033;-32
2021/07/19 11:56:51;;;;;;;4.15;3.75;;;25.00;69.80;;;;;;5053188;28;20025;-29
2021/07/19 11:59:21;;;;;;;4.65;3.70;;;25.00;69.30;;;;;;5054209;28;20490;-28
2021/07/19 12:01:56;;;;;;;4.38;3.63;;;25.00;69.30;;;;;;5061120;28;20048;-34
2021/07/19 12:04:22;;;;;;;3.97;3.47;;;25.00;69.20;;;;;;5053365;28;20039;-31
2021/07/19 12:06:53;;;;;;;4.97;3.60;;;25.00;69.30;;;;;;5057564;28;20032;-33
2021/07/19 12:09:20;;;;;;;4.07;3.72;;;25.00;69.60;;;;;;5052827;28;20081;-30
2021/07/19 12:11:55;;;;;;;3.78;3.40;;;25.00;69.60;;;;;;5058375;28;20066;-35
2021/07/19 12:14:21;;;;;;;3.97;3.55;;;25.00;69.70;;;;;;5057269;28;20043;-33
2021/07/19 12:16:47;;;;;;;4.95;3.40;;;25.00;69.90;;;;;;5052812;28;20024;-27
2021/07/19 12:19:14;;;;;;;3.20;3.00;;;25.00;70.00;;;;;;5058378;28;20074;-30
2021/07/19 12:21:45;;;;;;;3.97;3.28;;;25.00;69.90;;;;;;5063285;28;20052;-28
2021/07/19 12:24:11;;;;;;;3.63;3.33;;;25.00;70.00;;;;;;5066689;28;20116;-29
2021/07/19 12:26:43;;;;;;;3.92;3.60;;;25.00;69.90;;;;;;5044628;28;20016;-31
2021/07/19 12:29:10;;;;;;;6.22;3.63;;;25.00;69.40;;;;;;5060115;28;20460;-29
2021/07/19 12:31:44;;;;;;;4.18;3.80;;;25.00;69.50;;;;;;5056249;28;20041;-27
2021/07/19 12:34:15;;;;;;;3.90;3.60;;;25.00;69.70;;;;;;5071952;28;20479;-28
2021/07/19 12:36:42;;;;;;;4.18;3.78;;;25.10;69.70;;;;;;5071690;28;20024;-27
2021/07/19 12:39:12;;;;;;;3.90;2.97;;;25.10;69.40;;;;;;5077594;28;20028;-31
2021/07/19 12:41:38;;;;;;;3.45;3.13;;;25.10;69.20;;;;;;5065626;28;20067;-31
2021/07/19 12:44:10;;;;;;;3.10;2.90;;;25.10;69.00;;;;;;5048540;28;20112;-32
2021/07/19 12:46:40;;;;;;;3.63;3.35;;;25.10;69.50;;;;;;5039204;28;20490;-31